Time;durP1;ratioP1;P1;durP2;ratioP2;P2;SDS_P1;SDS_P2;PMS_P1;PMS_P2;Temp;Humidity;BMP_temperature;BMP_pressure;BME280_temperature;BME280_humidity;BME280_pressure;Samples;Min_cycle;Max_cycle;Signal;HPM_P1;HPM_P2
2021/08/18 00:00:05;;;;;;;12.60;6.62;;;;;;;15.71;56.16;100036.64;1955486;91;33793;-63
2021/08/18 00:03:10;;;;;;;11.57;5.85;;;;;;;15.70;56.32;100035.76;1932751;88;27745;-64
2021/08/18 00:06:14;;;;;;;10.68;6.37;;;;;;;15.70;56.61;100034.91;2025399;86;27734;-63
2021/08/18 00:09:16;;;;;;;10.88;6.97;;;;;;;15.71;56.58;100032.59;2047703;86;29568;-64
2021/08/18 00:12:19;;;;;;;13.18;8.18;;;;;;;15.74;56.60;100034.56;2048548;86;31008;-62
2021/08/18 00:15:24;;;;;;;12.95;6.53;;;;;;;15.76;56.59;100038.48;2048700;86;32968;-65
2021/08/18 00:18:27;;;;;;;12.85;7.45;;;;;;;15.78;56.62;100041.45;2024248;86;29424;-64
2021/08/18 00:21:30;;;;;;;10.68;7.25;;;;;;;15.80;56.51;100041.33;2009886;87;27786;-64
2021/08/18 00:24:41;;;;;;;16.40;7.55;;;;;;;15.80;56.47;100046.23;2016564;86;28213;-64
2021/08/18 00:27:45;;;;;;;13.88;6.53;;;;;;;15.82;56.55;100046.12;2030258;86;27957;-64
2021/08/18 00:30:48;;;;;;;12.37;7.90;;;;;;;15.82;56.36;100042.55;2022668;86;33042;-64
2021/08/18 00:33:51;;;;;;;14.10;7.95;;;;;;;15.84;56.45;100044.65;2041523;86;29363;-64
2021/08/18 00:36:54;;;;;;;10.93;7.10;;;;;;;15.84;56.51;100049.58;2023083;86;27603;-64
2021/08/18 00:39:57;;;;;;;12.25;7.70;;;;;;;15.84;56.34;100050.05;2046868;86;28746;-64
2021/08/18 00:43:12;;;;;;;14.25;7.20;;;;;;;15.86;56.40;100049.48;2027378;86;31944;-65
2021/08/18 01:26:08;;;;;;;15.90;8.33;;;;;;;15.64;56.48;100059.16;1595378;110;28353;-63
2021/08/18 01:29:11;;;;;;;14.53;8.73;;;;;;;15.57;56.53;100058.77;1613935;105;31836;-62
2021/08/18 01:32:14;;;;;;;13.48;8.38;;;;;;;15.56;56.64;100053.48;1713184;96;33040;-63
2021/08/18 01:35:31;;;;;;;12.43;7.72;;;;;;;15.51;56.72;100059.23;1945889;91;29383;-62
2021/08/18 01:38:34;;;;;;;12.75;8.25;;;;;;;15.48;56.79;100051.36;1944096;91;27635;-64
2021/08/18 01:41:38;;;;;;;13.40;8.10;;;;;;;15.43;56.75;100045.44;1924671;91;28728;-63
2021/08/18 01:44:40;;;;;;;13.25;8.48;;;;;;;15.39;56.76;100049.36;1906224;93;31053;-63
2021/08/18 01:47:44;;;;;;;14.63;8.50;;;;;;;15.36;56.91;100058.52;1924953;90;33732;-65
2021/08/18 01:50:50;;;;;;;11.70;8.30;;;;;;;15.34;57.02;100061.82;1945546;91;29517;-63
2021/08/18 01:53:53;;;;;;;12.00;8.55;;;;;;;15.33;57.13;100058.27;1927538;91;28309;-65
2021/08/18 01:56:55;;;;;;;12.80;8.13;;;;;;;15.33;57.26;100063.67;1971359;87;28668;-63
2021/08/18 01:59:57;;;;;;;13.50;8.73;;;;;;;15.33;57.15;100067.72;2002925;88;31826;-63
2021/08/18 02:02:59;;;;;;;18.57;8.50;;;;;;;15.35;57.16;100067.59;2002586;88;33125;-64
2021/08/18 02:06:02;;;;;;;11.05;7.50;;;;;;;15.29;57.18;100053.22;2008323;88;29540;-63
2021/08/18 02:09:04;;;;;;;10.90;7.92;;;;;;;15.33;57.18;100052.88;1989002;88;27556;-63
2021/08/18 02:12:07;;;;;;;12.78;7.97;;;;;;;15.31;57.16;100053.95;2007579;87;29504;-64
2021/08/18 02:15:13;;;;;;;11.75;8.45;;;;;;;15.32;57.20;100061.07;2000305;88;32087;-65
2021/08/18 02:18:15;;;;;;;13.60;8.95;;;;;;;15.31;57.14;100049.89;1974361;88;32969;-63
2021/08/18 02:21:18;;;;;;;12.88;7.75;;;;;;;15.29;57.12;100050.52;1956967;88;29355;-63
2021/08/18 02:24:20;;;;;;;13.85;7.65;;;;;;;15.27;57.07;100056.52;2003868;88;27640;-64
2021/08/18 02:27:21;;;;;;;10.45;7.50;;;;;;;15.23;57.17;100058.55;2004640;88;29595;-63
2021/08/18 02:30:26;;;;;;;10.88;6.83;;;;;;;15.20;57.13;100058.81;1978659;88;31017;-63
2021/08/18 02:33:29;;;;;;;13.38;8.53;;;;;;;15.17;57.22;100057.17;1972204;90;32981;-63
2021/08/18 02:36:31;;;;;;;10.55;7.65;;;;;;;15.13;57.10;100056.17;1973590;90;29397;-63
2021/08/18 02:39:32;;;;;;;10.70;7.33;;;;;;;15.07;57.15;100058.83;1985815;89;27734;-64
2021/08/18 02:42:34;;;;;;;9.33;7.03;;;;;;;15.04;57.20;100057.70;1987111;89;29450;-63
2021/08/18 02:45:36;;;;;;;11.63;7.58;;;;;;;15.02;57.26;100055.59;1978530;89;31029;-62
2021/08/18 02:48:37;;;;;;;11.60;7.72;;;;;;;14.98;57.27;100058.13;1969883;89;33745;-64
2021/08/18 02:51:40;;;;;;;13.50;7.55;;;;;;;14.94;57.33;100058.00;1967076;89;29656;-63
2021/08/18 02:54:42;;;;;;;12.37;7.20;;;;;;;14.90;57.35;100066.77;1998917;88;27719;-62
2021/08/18 02:57:44;;;;;;;10.93;6.95;;;;;;;14.88;57.42;100064.70;1958397;89;29464;-62
2021/08/18 03:00:46;;;;;;;13.22;7.28;;;;;;;14.87;57.36;100060.27;2012624;88;31906;-63
2021/08/18 03:03:48;;;;;;;14.30;7.72;;;;;;;14.85;57.45;100057.67;1990849;88;34082;-63
2021/08/18 03:06:52;;;;;;;13.08;7.53;;;;;;;14.83;57.41;100064.16;1979057;87;29680;-62
2021/08/18 03:09:54;;;;;;;9.58;6.70;;;;;;;14.78;57.42;100059.56;1983061;87;27678;-64
2021/08/18 03:12:55;;;;;;;11.38;6.70;;;;;;;14.73;57.46;100062.59;2017401;86;29495;-63
2021/08/18 03:15:57;;;;;;;11.88;7.08;;;;;;;14.69;57.53;100070.05;2016121;87;32318;-63
2021/08/18 03:18:59;;;;;;;11.85;6.47;;;;;;;14.64;57.73;100061.88;2030750;87;33336;-63
2021/08/18 03:22:01;;;;;;;12.82;6.92;;;;;;;14.57;57.71;100061.42;2013629;88;30258;-63
2021/08/18 03:25:05;;;;;;;10.32;6.62;;;;;;;14.52;57.76;100060.91;2054622;86;27694;-63
2021/08/18 03:28:07;;;;;;;11.88;6.85;;;;;;;14.46;57.82;100061.33;2025434;86;29532;-64
2021/08/18 03:31:09;;;;;;;9.73;6.15;;;;;;;14.37;57.91;100061.02;2023513;86;31133;-63
2021/08/18 03:34:11;;;;;;;12.68;6.70;;;;;;;14.29;57.91;100059.31;2048226;86;33543;-62
2021/08/18 03:37:12;;;;;;;12.75;7.12;;;;;;;14.22;58.11;100059.38;1996923;87;30138;-63
2021/08/18 03:40:15;;;;;;;11.90;7.60;;;;;;;14.14;58.26;100057.22;2021962;87;27622;-63
2021/08/18 03:43:17;;;;;;;10.93;7.22;;;;;;;14.07;58.33;100060.78;2002450;88;28703;-63
2021/08/18 03:46:18;;;;;;;10.35;6.33;;;;;;;14.01;58.46;100060.34;2041176;86;32216;-64
2021/08/18 03:49:20;;;;;;;10.10;6.20;;;;;;;13.93;58.55;100060.39;2022138;86;33128;-64
2021/08/18 03:52:22;;;;;;;13.08;7.40;;;;;;;13.88;58.69;100067.06;2029854;86;30496;-62
2021/08/18 03:55:24;;;;;;;14.83;8.33;;;;;;;13.82;58.72;100067.84;2025146;87;28219;-64
2021/08/18 03:58:27;;;;;;;15.55;7.33;;;;;;;13.79;58.89;100069.89;2018078;87;28479;-62
2021/08/18 04:01:28;;;;;;;10.28;6.25;;;;;;;13.75;59.07;100072.40;2014279;87;31879;-62
2021/08/18 04:04:30;;;;;;;14.68;7.72;;;;;;;13.72;59.11;100076.17;2020043;87;32941;-62
2021/08/18 04:07:34;;;;;;;12.63;7.00;;;;;;;13.73;59.38;100082.41;2000343;87;29481;-62
2021/08/18 04:10:35;;;;;;;9.80;6.95;;;;;;;13.71;59.36;100081.64;2053983;86;27653;-62
2021/08/18 04:13:37;;;;;;;11.78;6.40;;;;;;;13.71;59.49;100080.30;2011321;87;29867;-62
2021/08/18 04:16:40;;;;;;;9.83;6.30;;;;;;;13.70;59.67;100083.95;1979614;88;31730;-62
2021/08/18 04:19:42;;;;;;;11.35;6.83;;;;;;;13.71;59.69;100085.67;2015567;86;32867;-62
2021/08/18 04:22:46;;;;;;;12.58;6.85;;;;;;;13.72;59.71;100088.28;1989634;88;29351;-63
2021/08/18 04:25:48;;;;;;;11.80;7.40;;;;;;;13.77;59.83;100087.48;2029780;86;27607;-62
2021/08/18 04:28:50;;;;;;;11.05;7.47;;;;;;;13.82;59.83;100077.73;2008828;88;29920;-62
2021/08/18 04:31:52;;;;;;;10.25;6.28;;;;;;;13.91;59.84;100085.69;2013942;87;32026;-62
2021/08/18 04:34:54;;;;;;;12.95;6.60;;;;;;;13.98;59.96;100085.66;1991891;87;34119;-62
2021/08/18 04:37:56;;;;;;;11.38;7.10;;;;;;;14.05;59.97;100089.68;2003525;88;30540;-62
2021/08/18 04:40:59;;;;;;;11.03;6.60;;;;;;;14.15;59.97;100090.39;2013649;87;27724;-61
2021/08/18 04:44:01;;;;;;;12.10;6.72;;;;;;;14.24;59.79;100099.18;2008328;88;28983;-62
2021/08/18 04:47:04;;;;;;;11.48;7.65;;;;;;;14.36;59.82;100105.56;1969623;88;32295;-61
2021/08/18 04:50:08;;;;;;;14.87;7.50;;;;;;;14.46;59.75;100105.80;2013559;88;33038;-63
2021/08/18 04:53:11;;;;;;;11.43;7.15;;;;;;;14.71;59.54;100117.12;2007022;88;32487;-62
2021/08/18 04:56:13;;;;;;;12.18;7.05;;;;;;;14.71;59.54;100117.12;1990824;88;27727;-62
2021/08/18 04:59:14;;;;;;;12.33;7.45;;;;;;;14.87;59.48;100114.22;1970686;89;28656;-63
2021/08/18 05:02:16;;;;;;;11.78;7.72;;;;;;;15.14;59.49;100108.66;1983784;88;31394;-63
2021/08/18 05:05:18;;;;;;;12.82;8.00;;;;;;;15.54;59.28;100108.09;1987063;88;33796;-63
2021/08/18 05:08:20;;;;;;;9.98;6.67;;;;;;;15.95;58.77;100116.34;1996080;88;30361;-62
2021/08/18 05:11:21;;;;;;;11.53;7.30;;;;;;;16.31;58.21;100111.79;1997367;88;27684;-63
2021/08/18 05:14:24;;;;;;;9.33;6.78;;;;;;;16.63;57.86;100115.69;1996513;88;29249;-62
2021/08/18 05:17:26;;;;;;;12.68;6.12;;;;;;;16.95;57.28;100123.14;1982022;88;32235;-63
2021/08/18 05:20:28;;;;;;;12.63;7.42;;;;;;;17.21;56.79;100122.92;1985032;88;34199;-63
2021/08/18 05:23:30;;;;;;;10.80;7.03;;;;;;;17.50;56.16;100121.89;2000500;88;29654;-63
2021/08/18 05:26:32;;;;;;;9.40;6.03;;;;;;;17.75;56.05;100122.59;2003742;88;27699;-67
2021/08/18 05:29:33;;;;;;;9.55;6.40;;;;;;;18.02;55.44;100121.30;2000990;88;29514;-63
2021/08/18 05:32:36;;;;;;;10.38;6.72;;;;;;;18.29;54.95;100119.45;1974442;88;31107;-65
2021/08/18 05:35:38;;;;;;;9.30;6.45;;;;;;;18.52;53.83;100124.26;2014809;88;33774;-66
2021/08/18 05:38:40;;;;;;;9.20;6.58;;;;;;;18.73;53.96;100129.31;2001849;88;29345;-64
2021/08/18 05:41:42;;;;;;;10.90;7.50;;;;;;;18.97;53.59;100123.14;2031626;86;27758;-63
2021/08/18 05:44:44;;;;;;;10.15;7.15;;;;;;;19.27;53.08;100130.06;2012426;88;29745;-64
2021/08/18 05:47:48;;;;;;;10.93;6.75;;;;;;;19.49;52.83;100132.19;2002069;87;31029;-63
2021/08/18 05:50:51;;;;;;;12.78;6.22;;;;;;;19.56;51.85;100134.22;1983303;88;33005;-64
2021/08/18 05:53:53;;;;;;;8.45;5.87;;;;;;;19.54;51.42;100124.49;2012332;88;29323;-64
2021/08/18 05:57:27;;;;;;;8.88;5.85;;;;;;;19.58;51.17;100121.35;2012100;88;27682;-63
2021/08/18 06:00:11;;;;;;;9.35;5.87;;;;;;;19.74;51.17;100127.63;1997187;86;27772;-73
2021/08/18 06:03:13;;;;;;;8.55;6.15;;;;;;;20.04;50.83;100126.31;2032321;86;31039;-67
2021/08/18 06:06:16;;;;;;;9.98;5.22;;;;;;;20.18;50.18;100117.76;2048381;86;33105;-69
2021/08/18 06:09:18;;;;;;;6.33;5.00;;;;;;;20.20;49.91;100113.52;2040827;86;29356;-69
2021/08/18 06:12:20;;;;;;;10.00;5.35;;;;;;;20.42;49.86;100109.63;2034866;86;27640;-67
2021/08/18 06:15:23;;;;;;;9.73;5.03;;;;;;;20.64;49.27;100106.24;2019731;87;28779;-72
2021/08/18 06:18:25;;;;;;;8.05;5.30;;;;;;;20.88;48.89;100107.14;2025476;87;31061;-70
2021/08/18 06:21:31;;;;;;;7.80;5.37;;;;;;;21.18;48.72;100116.58;2012712;87;33974;-67
2021/08/18 06:24:46;;;;;;;7.47;5.53;;;;;;;21.60;48.54;100113.82;1993029;88;29387;-68
2021/08/18 06:27:50;;;;;;;7.60;5.33;;;;;;;22.08;48.02;100114.05;1988566;89;27735;-67
2021/08/18 06:30:57;;;;;;;8.55;4.92;;;;;;;22.55;47.26;100099.27;1971248;89;28675;-71
2021/08/18 06:34:07;;;;;;;7.78;5.20;;;;;;;23.03;46.62;100097.52;1999023;88;31055;-71
2021/08/18 06:37:15;;;;;;;8.35;5.53;;;;;;;23.54;45.76;100091.27;1973578;87;33080;-67
2021/08/18 06:40:21;;;;;;;6.30;5.10;;;;;;;24.04;45.26;100088.17;2018294;87;29377;-67
2021/08/18 06:43:29;;;;;;;7.70;5.20;;;;;;;24.53;44.46;100081.81;2009454;87;27793;-68
2021/08/18 06:46:34;;;;;;;6.67;4.85;;;;;;;24.86;43.76;100088.14;1995233;87;28713;-69
2021/08/18 06:49:36;;;;;;;8.18;4.80;;;;;;;25.34;43.05;100092.77;1998253;88;30989;-70
2021/08/18 06:52:38;;;;;;;10.20;5.20;;;;;;;25.70;42.73;100085.41;1998921;89;33133;-65
2021/08/18 06:55:40;;;;;;;7.92;4.35;;;;;;;26.11;41.90;100090.27;1998676;87;29342;-65
2021/08/18 06:58:42;;;;;;;7.90;4.80;;;;;;;26.46;41.67;100091.57;1993374;88;27649;-66
2021/08/18 07:01:44;;;;;;;6.17;4.85;;;;;;;26.81;40.60;100091.92;1995357;88;28507;-65
2021/08/18 07:04:46;;;;;;;7.65;4.25;;;;;;;27.23;40.16;100096.97;1998892;89;31079;-66
2021/08/18 07:07:48;;;;;;;7.83;5.03;;;;;;;27.55;39.36;100103.12;1998812;88;32962;-66
2021/08/18 07:10:51;;;;;;;7.28;4.50;;;;;;;27.82;38.86;100090.52;1998852;89;29338;-65
2021/08/18 07:13:59;;;;;;;6.35;4.40;;;;;;;28.01;38.35;100106.08;1995585;88;27624;-66
2021/08/18 07:17:00;;;;;;;9.50;4.08;;;;;;;28.22;37.97;100098.37;1950949;90;28789;-66
2021/08/18 07:20:03;;;;;;;5.72;4.55;;;;;;;28.50;37.53;100111.33;1950993;91;31978;-66
2021/08/18 07:23:04;;;;;;;5.95;4.58;;;;;;;28.77;37.02;100097.80;1954837;88;32964;-66
2021/08/18 07:26:06;;;;;;;5.28;4.17;;;;;;;28.65;35.66;100102.97;1995472;87;30272;-65
2021/08/18 07:29:09;;;;;;;5.12;3.98;;;;;;;28.42;35.50;100097.16;1981945;89;27757;-63
2021/08/18 07:32:11;;;;;;;6.08;4.22;;;;;;;28.31;34.79;100110.95;1981926;89;29488;-63
2021/08/18 07:35:14;;;;;;;7.05;4.33;;;;;;;27.79;35.23;100112.09;1983546;89;32440;-63
2021/08/18 07:38:15;;;;;;;7.47;4.40;;;;;;;27.71;35.31;100105.64;2005106;88;34236;-63
2021/08/18 07:41:18;;;;;;;5.37;4.42;;;;;;;27.72;34.49;100118.36;1971527;89;30419;-64
2021/08/18 07:44:20;;;;;;;6.58;4.03;;;;;;;27.68;34.66;100112.91;1973415;89;28428;-64
2021/08/18 07:47:21;;;;;;;6.35;3.80;;;;;;;27.60;34.90;100119.38;1935390;92;29484;-64
2021/08/18 07:50:23;;;;;;;5.10;3.90;;;;;;;27.34;34.50;100110.77;1961163;90;31011;-65
2021/08/18 07:53:26;;;;;;;6.47;4.45;;;;;;;27.26;34.88;100117.22;1935468;92;32957;-65
2021/08/18 07:56:31;;;;;;;5.50;4.10;;;;;;;27.74;35.10;100114.89;1978804;87;29487;-65
2021/08/18 07:59:32;;;;;;;4.45;3.85;;;;;;;28.33;34.42;100117.11;2004871;87;28144;-65
2021/08/18 08:02:34;;;;;;;5.40;3.83;;;;;;;28.32;33.92;100115.95;1971528;90;29509;-65
2021/08/18 08:05:36;;;;;;;6.45;4.08;;;;;;;28.02;33.76;100119.64;1993482;88;31214;-64
2021/08/18 08:08:39;;;;;;;;;;;;;;;27.67;34.03;100128.25;1997384;88;28030;-65
2021/08/18 08:11:41;;;;;;;4.45;4.05;;;;;;;27.65;33.73;100122.08;2037491;87;29325;-65
2021/08/18 08:14:43;;;;;;;5.97;3.45;;;;;;;27.62;34.27;100126.08;2039995;86;28398;-65
2021/08/18 08:17:45;;;;;;;5.87;4.00;;;;;;;27.54;33.95;100128.93;2012063;88;28158;-64
2021/08/18 08:20:47;;;;;;;5.05;3.87;;;;;;;27.17;34.08;100137.09;2021694;87;31135;-65
2021/08/18 08:23:49;;;;;;;8.85;3.75;;;;;;;27.15;34.41;100135.88;2021784;87;32424;-65
2021/08/18 08:26:50;;;;;;;5.17;3.27;;;;;;;27.54;34.08;100129.80;1980296;89;30138;-65
2021/08/18 08:29:52;;;;;;;6.62;3.30;;;;;;;27.61;33.79;100125.75;2021833;88;27709;-65
2021/08/18 08:32:54;;;;;;;4.42;3.45;;;;;;;27.44;33.15;100126.44;1993614;88;28660;-65
2021/08/18 08:35:57;;;;;;;5.95;3.40;;;;;;;27.25;33.75;100133.39;1993142;89;31823;-64
2021/08/18 08:38:59;;;;;;;5.70;3.30;;;;;;;27.30;33.74;100129.02;1993403;89;33062;-64
2021/08/18 08:42:05;;;;;;;5.60;3.33;;;;;;;27.16;33.60;100135.37;1998007;87;29334;-64
2021/08/18 08:45:09;;;;;;;4.97;3.25;;;;;;;26.72;33.45;100132.03;2031631;87;27747;-66
2021/08/18 08:48:11;;;;;;;5.47;3.08;;;;;;;26.32;33.95;100133.05;2031655;87;28708;-65
2021/08/18 08:51:13;;;;;;;4.25;2.92;;;;;;;26.56;33.80;100123.41;2031467;87;31077;-65
2021/08/18 08:54:19;;;;;;;5.92;3.35;;;;;;;26.50;34.11;100123.10;1999026;87;32975;-66
2021/08/18 08:57:21;;;;;;;3.52;2.75;;;;;;;26.39;34.09;100133.16;1998560;89;30134;-65
2021/08/18 09:00:24;;;;;;;3.87;2.83;;;;;;;26.31;34.23;100123.10;2013687;87;27735;-65
2021/08/18 09:03:26;;;;;;;2.95;2.62;;;;;;;26.32;34.27;100124.81;1980258;89;28923;-66
2021/08/18 09:06:28;;;;;;;4.75;3.30;;;;;;;26.30;34.16;100122.77;2007747;87;31233;-66
2021/08/18 09:09:31;;;;;;;4.37;2.62;;;;;;;26.22;34.24;100128.34;2026005;87;33006;-66
2021/08/18 09:12:37;;;;;;;3.50;2.85;;;;;;;26.13;33.78;100119.30;2026208;87;30162;-65
2021/08/18 09:15:40;;;;;;;4.03;2.87;;;;;;;26.00;34.15;100123.11;2014878;87;27730;-65
2021/08/18 09:19:51;;;;;;;4.97;2.55;;;;;;;25.93;34.38;100113.38;1955658;89;29884;-65
2021/08/18 09:22:09;;;;;;;4.53;2.22;;;;;;;25.86;34.50;100113.26;1838901;90;27923;-64
2021/08/18 09:25:24;;;;;;;3.85;2.33;;;;;;;25.81;34.40;100099.25;1895267;93;33838;-63
2021/08/18 09:28:27;;;;;;;5.78;2.40;;;;;;;25.88;34.52;100104.86;1895605;93;28987;-64
2021/08/18 09:31:28;;;;;;;6.58;3.25;;;;;;;25.90;34.41;100109.13;1897726;93;27683;-63
2021/08/18 09:34:30;;;;;;;3.87;2.98;;;;;;;25.88;34.48;100108.98;1897402;93;28799;-61
2021/08/18 09:37:32;;;;;;;3.60;3.22;;;;;;;25.77;34.47;100100.64;1897867;93;31050;-64
2021/08/18 09:40:39;;;;;;;4.28;3.12;;;;;;;25.81;34.45;100110.73;1889781;93;33623;-66
2021/08/18 09:43:41;;;;;;;3.98;2.50;;;;;;;25.78;34.63;100101.81;1867775;95;30266;-63
2021/08/18 09:46:44;;;;;;;6.12;2.75;;;;;;;25.87;34.74;100092.17;1868134;95;27732;-65
2021/08/18 09:49:46;;;;;;;5.90;2.83;;;;;;;25.90;34.81;100089.04;1867671;95;29503;-64
2021/08/18 09:52:51;;;;;;;2.72;2.33;;;;;;;25.88;34.77;100100.74;1894636;93;32090;-61
2021/08/18 09:56:08;;;;;;;2.52;2.33;;;;;;;25.70;34.64;100100.51;1897510;93;33623;-65
2021/08/18 09:59:12;;;;;;;7.78;2.42;;;;;;;25.64;34.69;100098.47;1933284;90;29726;-61
2021/08/18 10:02:17;;;;;;;6.20;2.20;;;;;;;25.61;34.69;100087.86;1965482;90;27724;-61
2021/08/18 10:05:20;;;;;;;3.55;2.12;;;;;;;25.55;34.65;100090.80;1965447;90;29465;-61
2021/08/18 10:08:23;;;;;;;4.80;2.20;;;;;;;25.39;34.48;100092.23;1965437;90;31034;-62
2021/08/18 10:11:27;;;;;;;5.92;2.75;;;;;;;25.24;34.72;100090.73;1965061;90;33606;-62
2021/08/18 10:14:31;;;;;;;5.97;2.55;;;;;;;25.30;34.91;100091.41;1990151;88;30114;-62
2021/08/18 10:17:40;;;;;;;5.57;1.87;;;;;;;25.38;34.94;100090.02;1954731;90;27723;-63
2021/08/18 10:20:48;;;;;;;2.05;1.85;;;;;;;25.44;34.89;100096.17;1970358;89;28648;-62
2021/08/18 10:24:04;;;;;;;3.05;2.65;;;;;;;25.44;34.70;100084.36;1965840;89;32123;-62
2021/08/18 10:27:21;;;;;;;3.67;2.27;;;;;;;25.33;34.77;100082.30;1991184;88;30613;-63
2021/08/18 10:30:27;;;;;;;3.33;1.90;;;;;;;25.25;34.95;100077.36;2000927;87;27809;-62
2021/08/18 10:34:11;;;;;;;2.35;1.92;;;;;;;25.28;35.12;100079.26;2000023;87;28289;-63
2021/08/18 10:37:46;;;;;;;3.67;1.87;;;;;;;25.37;34.91;100078.70;1982410;89;28059;-68
2021/08/18 10:40:35;;;;;;;2.02;1.60;;;;;;;25.26;34.79;100071.72;1982033;87;27834;-65
2021/08/18 10:43:59;;;;;;;1.85;1.70;;;;;;;25.32;35.00;100078.38;1980863;89;33116;-64
2021/08/18 10:47:35;;;;;;;2.25;1.60;;;;;;;25.32;35.02;100077.84;1961947;89;30450;-68
2021/08/18 10:50:41;;;;;;;2.55;1.47;;;;;;;25.37;34.91;100075.96;1961754;89;27760;-65
2021/08/18 10:53:44;;;;;;;1.72;1.50;;;;;;;25.32;34.55;100075.10;1975167;89;44079;-66
2021/08/18 10:56:46;;;;;;;2.47;1.12;;;;;;;25.20;34.89;100068.84;1994865;88;31765;-65
2021/08/18 10:59:50;;;;;;;2.20;1.50;;;;;;;25.15;34.96;100067.48;1994424;89;33043;-65
2021/08/18 11:03:04;;;;;;;1.30;1.20;;;;;;;25.07;35.07;100082.57;1991880;89;30354;-64
2021/08/18 11:06:08;;;;;;;2.03;1.67;;;;;;;25.01;35.27;100084.14;1962429;90;27720;-61
2021/08/18 11:09:11;;;;;;;1.35;1.25;;;;;;;25.12;35.38;100080.70;1962290;89;28710;-63
2021/08/18 11:12:43;;;;;;;4.10;1.40;;;;;;;25.29;35.30;100077.36;1961662;90;32248;-63
2021/08/18 11:15:50;;;;;;;2.55;1.17;;;;;;;25.28;34.95;100077.02;1972491;89;33062;-64
2021/08/18 11:19:08;;;;;;;1.37;1.27;;;;;;;25.40;35.08;100070.09;1994681;89;29317;-66
2021/08/18 11:22:13;;;;;;;1.98;1.72;;;;;;;25.44;34.99;100066.00;2014161;88;27720;-64
2021/08/18 11:25:18;;;;;;;1.72;1.37;;;;;;;25.50;34.55;100069.91;2002804;88;28804;-65
2021/08/18 11:28:22;;;;;;;1.87;1.20;;;;;;;25.53;34.91;100066.81;1954033;90;32383;-64
2021/08/18 11:31:34;;;;;;;1.37;1.22;;;;;;;25.67;34.74;100062.95;1953746;90;33780;-63
2021/08/18 11:34:40;;;;;;;2.83;1.20;;;;;;;25.78;34.79;100058.44;1953760;91;29468;-63
2021/08/18 11:37:41;;;;;;;1.00;1.00;;;;;;;25.90;34.49;100059.72;1981304;89;27723;-63
2021/08/18 11:40:48;;;;;;;1.30;1.17;;;;;;;25.89;34.51;100055.27;1977392;89;28657;-63
2021/08/18 11:43:50;;;;;;;1.15;1.00;;;;;;;25.94;34.59;100063.81;1986545;89;31947;-63
2021/08/18 11:46:55;;;;;;;1.10;1.00;;;;;;;26.06;34.65;100049.65;1967070;88;33011;-63
2021/08/18 11:49:56;;;;;;;;;;;;;;;26.09;34.30;100050.13;1945714;91;29444;-63
2021/08/18 11:53:04;;;;;;;2.08;1.35;;;;;;;25.98;34.34;100048.36;1943656;91;27672;-63
2021/08/18 11:56:06;;;;;;;1.20;1.10;;;;;;;25.85;34.08;100052.55;1950840;89;28660;-65
2021/08/18 11:59:08;;;;;;;2.72;1.45;;;;;;;25.68;34.23;100049.07;1986329;89;31092;-64
2021/08/18 12:02:11;;;;;;;1.90;1.57;;;;;;;25.60;34.74;100045.86;1986466;89;34010;-63
2021/08/18 12:05:13;;;;;;;1.30;1.20;;;;;;;25.61;34.68;100039.34;1985958;89;29336;-63
2021/08/18 12:08:17;;;;;;;3.10;1.50;;;;;;;25.59;34.64;100037.80;1964070;89;27814;-64
2021/08/18 12:11:33;;;;;;;7.30;1.57;;;;;;;25.63;34.76;100042.77;1968381;88;29851;-62
2021/08/18 12:14:46;;;;;;;5.08;1.40;;;;;;;25.37;34.81;100019.75;1978470;88;31021;-62
2021/08/18 12:17:51;;;;;;;2.12;1.30;;;;;;;25.42;34.90;100045.28;1985603;88;32987;-64
2021/08/18 12:20:55;;;;;;;1.50;1.40;;;;;;;25.34;34.92;100039.30;1984236;88;30225;-63
2021/08/18 12:24:01;;;;;;;1.15;1.05;;;;;;;25.37;35.12;100045.80;1989815;88;27491;-63
2021/08/18 12:27:07;;;;;;;3.58;1.37;;;;;;;25.33;34.83;100040.33;1985952;88;28694;-62
2021/08/18 12:30:12;;;;;;;3.35;1.60;;;;;;;25.36;35.08;100040.47;1994939;88;31891;-63
2021/08/18 12:33:21;;;;;;;1.50;1.37;;;;;;;25.36;35.00;100031.75;1964288;87;33748;-62
2021/08/18 12:36:28;;;;;;;3.10;1.50;;;;;;;25.46;35.14;100039.78;1961704;89;29422;-63
2021/08/18 12:39:39;;;;;;;1.37;1.27;;;;;;;25.55;34.93;100034.57;1962312;89;27678;-62
2021/08/18 12:42:46;;;;;;;2.17;1.30;;;;;;;25.41;34.63;100037.52;1982609;89;28645;-62
2021/08/18 12:45:49;;;;;;;3.90;1.30;;;;;;;25.38;34.94;100038.41;1994524;87;31877;-63
2021/08/18 12:48:51;;;;;;;1.57;1.37;;;;;;;25.33;35.15;100035.68;1994896;89;33867;-64
2021/08/18 12:51:55;;;;;;;2.42;1.55;;;;;;;25.28;35.25;100023.05;1986528;88;30315;-62
2021/08/18 12:54:59;;;;;;;1.95;1.40;;;;;;;25.20;35.36;100007.99;1962201;89;27651;-61
2021/08/18 12:58:02;;;;;;;1.77;1.20;;;;;;;24.98;35.42;100007.78;1961924;90;29885;-62
2021/08/18 13:01:04;;;;;;;1.40;1.30;;;;;;;24.75;35.46;100006.30;1961499;89;32305;-63
2021/08/18 13:04:06;;;;;;;2.20;1.60;;;;;;;24.68;35.64;100008.85;1993331;89;33905;-63
2021/08/18 13:07:08;;;;;;;1.60;1.22;;;;;;;24.75;35.61;100006.30;1994836;88;29329;-63
2021/08/18 13:10:11;;;;;;;2.02;1.27;;;;;;;24.88;35.38;100005.74;1995134;89;27770;-63
2021/08/18 13:13:13;;;;;;;4.50;1.20;;;;;;;25.00;35.92;99997.99;1995181;88;28908;-64
2021/08/18 13:16:15;;;;;;;1.77;1.35;;;;;;;25.17;35.81;100001.00;1991492;88;32251;-63
2021/08/18 13:19:18;;;;;;;2.27;1.60;;;;;;;25.31;35.62;99997.14;1994524;88;33855;-64
2021/08/18 13:22:21;;;;;;;3.45;1.60;;;;;;;25.43;35.61;99999.84;2018193;87;30001;-64
2021/08/18 13:25:23;;;;;;;1.52;1.40;;;;;;;25.54;35.43;99990.88;1996403;86;27775;-63
2021/08/18 13:28:25;;;;;;;5.00;1.47;;;;;;;25.61;35.76;99992.70;1960397;89;29696;-65
2021/08/18 13:31:29;;;;;;;1.40;1.30;;;;;;;25.67;35.75;99988.38;1961837;89;31200;-64
2021/08/18 13:34:31;;;;;;;1.45;1.30;;;;;;;25.68;35.13;99985.09;1962262;89;34050;-62
2021/08/18 13:37:35;;;;;;;3.70;1.17;;;;;;;25.54;35.20;99984.02;1963764;89;29543;-63
2021/08/18 13:40:41;;;;;;;3.20;1.32;;;;;;;25.40;34.86;99977.38;1962003;89;27772;-63
2021/08/18 13:43:50;;;;;;;2.40;2.00;;;;;;;25.32;35.57;99975.55;1961761;90;29606;-64
2021/08/18 13:46:53;;;;;;;2.15;1.95;;;;;;;25.35;35.42;99979.30;1979751;89;31061;-64
2021/08/18 13:49:55;;;;;;;1.50;1.27;;;;;;;25.33;35.46;99973.98;1969105;88;32882;-63
2021/08/18 13:52:57;;;;;;;1.90;1.62;;;;;;;25.29;35.29;99973.16;1961720;89;29354;-64
2021/08/18 13:56:02;;;;;;;2.10;1.50;;;;;;;25.26;35.39;99973.52;1953463;90;27706;-63
2021/08/18 13:59:08;;;;;;;2.30;1.50;;;;;;;25.30;35.83;99974.38;1983479;88;28666;-63
2021/08/18 14:02:10;;;;;;;2.87;1.90;;;;;;;25.35;35.74;99973.81;1986103;89;31733;-63
2021/08/18 14:05:12;;;;;;;3.83;2.75;;;;;;;25.38;35.70;99966.61;1994157;88;32944;-63
2021/08/18 14:08:16;;;;;;;2.33;1.60;;;;;;;25.36;35.71;99964.56;1994919;88;29506;-63
2021/08/18 14:11:17;;;;;;;2.70;1.47;;;;;;;25.33;35.58;99966.29;1980942;88;27668;-63
2021/08/18 14:14:19;;;;;;;4.62;2.10;;;;;;;25.25;35.64;99957.59;1961597;90;29959;-63
2021/08/18 14:17:23;;;;;;;1.62;1.35;;;;;;;25.13;35.60;99955.78;1961956;89;32091;-63
2021/08/18 14:20:27;;;;;;;3.55;1.50;;;;;;;25.04;35.60;99962.35;1961892;89;32971;-63
2021/08/18 14:23:29;;;;;;;4.58;2.25;;;;;;;24.95;35.83;99962.04;1961514;89;31356;-63
2021/08/18 14:26:31;;;;;;;2.30;1.92;;;;;;;24.85;35.96;99959.02;1992474;89;27743;-63
2021/08/18 14:29:36;;;;;;;2.10;1.70;;;;;;;24.78;36.36;99951.16;1995547;87;28711;-63
2021/08/18 14:32:38;;;;;;;4.47;1.50;;;;;;;24.70;36.10;99946.56;1994807;88;31872;-64
2021/08/18 14:35:40;;;;;;;2.60;1.30;;;;;;;24.63;36.42;99955.63;1994168;89;33087;-64
2021/08/18 14:38:41;;;;;;;2.12;1.92;;;;;;;24.56;36.71;99952.25;2015170;88;29416;-65
2021/08/18 14:41:43;;;;;;;4.00;1.47;;;;;;;24.56;36.56;99952.75;2007648;87;27807;-65
2021/08/18 14:44:46;;;;;;;1.87;1.77;;;;;;;24.56;36.87;99944.53;1995145;89;28667;-64
2021/08/18 14:47:48;;;;;;;2.92;1.60;;;;;;;24.57;37.00;99942.97;1977228;89;31974;-64
2021/08/18 14:50:50;;;;;;;5.95;2.00;;;;;;;24.61;37.12;99947.61;1962009;89;33057;-64
2021/08/18 14:53:54;;;;;;;2.60;1.82;;;;;;;24.64;37.21;99945.89;1961805;90;29391;-63